createdAt,value
2022-09-26T00:01:43.169Z,10.28
2022-09-26T00:03:52.818Z,10.24
2022-09-26T00:06:03.433Z,10.12
2022-09-26T00:08:11.350Z,10.02
2022-09-26T00:10:21.740Z,9.98
2022-09-26T00:12:30.473Z,9.80
2022-09-26T00:14:39.478Z,9.71
2022-09-26T00:16:47.666Z,9.77
2022-09-26T00:18:58.995Z,9.76
2022-09-26T00:21:08.910Z,9.78
2022-09-26T00:23:16.996Z,9.76
2022-09-26T00:25:27.349Z,9.69
2022-09-26T00:27:35.148Z,9.68
2022-09-26T00:29:42.941Z,9.60
2022-09-26T00:31:50.608Z,9.62
2022-09-26T00:33:59.354Z,9.63
2022-09-26T00:36:07.763Z,9.55
2022-09-26T00:38:15.522Z,9.58
2022-09-26T00:40:27.140Z,9.52
2022-09-26T00:42:37.697Z,9.60
2022-09-26T00:44:54.618Z,9.61
2022-09-26T00:47:02.513Z,9.58
2022-09-26T00:49:25.901Z,9.62
2022-09-26T00:51:34.790Z,9.63
2022-09-26T00:53:47.945Z,9.87
2022-09-26T00:55:59.087Z,9.92
2022-09-26T00:58:13.088Z,9.95
2022-09-26T01:00:20.958Z,9.83
2022-09-26T01:02:33.963Z,9.78
2022-09-26T01:04:45.326Z,9.75
2022-09-26T01:06:53.092Z,9.66
2022-09-26T01:09:08.622Z,9.53
2022-09-26T01:11:17.534Z,9.54
2022-09-26T01:13:28.413Z,9.49
2022-09-26T01:15:39.077Z,9.37
2022-09-26T01:17:48.649Z,9.36
2022-09-26T01:20:23.862Z,9.30
2022-09-26T01:23:02.979Z,9.42
2022-09-26T01:25:27.843Z,9.37
2022-09-26T01:28:00.040Z,9.25
2022-09-26T01:30:14.308Z,9.19
2022-09-26T01:32:50.148Z,9.10
2022-09-26T01:35:04.326Z,8.91
2022-09-26T01:37:22.580Z,8.78
2022-09-26T01:39:47.533Z,8.73
2022-09-26T01:42:07.586Z,8.69
2022-09-26T01:44:28.904Z,8.72
2022-09-26T01:46:44.236Z,8.72
2022-09-26T01:48:58.896Z,8.64
2022-09-26T01:51:16.058Z,8.60
2022-09-26T01:53:29.273Z,8.69
2022-09-26T01:55:42.415Z,8.60
2022-09-26T01:57:55.692Z,8.60
2022-09-26T02:00:07.876Z,8.55
2022-09-26T02:02:28.753Z,8.48
2022-09-26T02:04:41.522Z,8.59
2022-09-26T02:06:54.050Z,8.69
2022-09-26T02:09:10.840Z,8.58
2022-09-26T02:11:20.818Z,8.59
2022-09-26T02:13:34.432Z,8.56
2022-09-26T02:15:43.177Z,8.66
2022-09-26T02:17:58.935Z,8.60
2022-09-26T02:20:14.598Z,8.59
2022-09-26T02:22:26.697Z,8.62
2022-09-26T02:24:34.706Z,8.68
2022-09-26T02:26:43.574Z,8.74
2022-09-26T02:28:51.561Z,8.82
2022-09-26T02:31:01.461Z,8.83
2022-09-26T02:33:13.051Z,8.85
2022-09-26T02:35:34.381Z,8.81
2022-09-26T02:37:43.495Z,8.75
2022-09-26T02:39:54.317Z,8.91
2022-09-26T02:42:16.389Z,8.88
2022-09-26T02:44:45.834Z,8.95
2022-09-26T02:47:23.588Z,9.00
2022-09-26T02:50:03.002Z,8.93
2022-09-26T02:52:24.591Z,9.01
2022-09-26T02:54:41.759Z,9.00
2022-09-26T02:57:04.302Z,9.05
2022-09-26T02:59:22.948Z,9.01
2022-09-26T03:01:40.283Z,8.99
2022-09-26T03:03:55.944Z,9.01
2022-09-26T03:06:11.124Z,9.03
2022-09-26T03:08:25.488Z,9.03
2022-09-26T03:10:35.223Z,9.12
2022-09-26T03:12:45.912Z,9.15
2022-09-26T03:14:58.551Z,9.10
2022-09-26T03:17:07.711Z,9.09
2022-09-26T03:19:22.548Z,9.02
2022-09-26T03:21:36.994Z,9.11
2022-09-26T03:23:46.198Z,9.12
2022-09-26T03:26:02.475Z,9.08
2022-09-26T03:28:13.161Z,9.09
2022-09-26T03:30:23.149Z,9.07
2022-09-26T03:32:49.424Z,9.07
2022-09-26T03:34:57.385Z,9.06
2022-09-26T03:37:08.226Z,9.10
2022-09-26T03:39:16.559Z,9.07
2022-09-26T03:41:37.534Z,9.06
2022-09-26T03:44:04.322Z,9.05
2022-09-26T03:46:39.803Z,9.05
2022-09-26T03:48:50.904Z,9.09
2022-09-26T03:50:58.624Z,9.10
2022-09-26T03:53:08.947Z,9.00
2022-09-26T03:55:16.872Z,8.93
2022-09-26T03:57:25.973Z,8.85
2022-09-26T03:59:40.598Z,8.78
2022-09-26T04:01:51.717Z,8.87
2022-09-26T04:04:00.460Z,9.01
2022-09-26T04:06:10.915Z,9.00
2022-09-26T04:08:23.199Z,9.07
2022-09-26T04:10:31.337Z,9.02
2022-09-26T04:12:39.110Z,8.95
2022-09-26T04:14:46.899Z,9.00
2022-09-26T04:16:54.744Z,8.86
2022-09-26T04:19:14.162Z,8.76
2022-09-26T04:21:22.054Z,8.65
2022-09-26T04:23:35.654Z,8.64
2022-09-26T04:25:43.456Z,8.59
2022-09-26T04:27:51.250Z,8.63
2022-09-26T04:30:00.000Z,8.64
2022-09-26T04:32:19.642Z,8.68
2022-09-26T04:34:47.346Z,8.73
2022-09-26T04:36:55.347Z,8.67
2022-09-26T04:39:06.874Z,8.67
2022-09-26T04:41:20.085Z,8.64
2022-09-26T04:43:29.481Z,8.64
2022-09-26T04:45:37.431Z,8.73
2022-09-26T04:47:52.761Z,8.76
2022-09-26T04:50:06.822Z,8.76
2022-09-26T04:52:16.134Z,8.80
2022-09-26T04:54:29.184Z,8.69
2022-09-26T04:56:48.251Z,8.74
2022-09-26T04:58:58.388Z,8.63
2022-09-26T05:01:13.947Z,8.61
2022-09-26T05:03:46.542Z,8.50
2022-09-26T05:05:54.426Z,8.55
2022-09-26T05:08:02.415Z,8.55
2022-09-26T05:10:13.483Z,8.55
2022-09-26T05:12:30.220Z,8.55
2022-09-26T05:14:38.195Z,8.58
2022-09-26T05:16:46.105Z,8.48
2022-09-26T05:18:56.684Z,8.47
2022-09-26T05:21:07.602Z,8.53
2022-09-26T05:23:44.413Z,8.59
2022-09-26T05:26:08.404Z,8.57
2022-09-26T05:28:17.915Z,8.38
2022-09-26T05:30:57.961Z,8.33
2022-09-26T05:33:26.651Z,8.42
2022-09-26T05:35:35.881Z,8.39
2022-09-26T05:37:44.267Z,8.33
2022-09-26T05:40:05.425Z,8.38
2022-09-26T05:42:18.185Z,8.38
2022-09-26T05:44:28.395Z,8.41
2022-09-26T05:46:38.353Z,8.46
2022-09-26T05:48:51.184Z,8.39
2022-09-26T05:51:09.180Z,8.47
2022-09-26T05:53:20.236Z,8.50
2022-09-26T05:55:30.386Z,8.50
2022-09-26T05:58:07.798Z,8.54
2022-09-26T06:00:35.795Z,8.66
2022-09-26T06:02:43.782Z,8.78
2022-09-26T06:05:00.159Z,8.72
2022-09-26T06:07:28.336Z,8.97
2022-09-26T06:09:36.306Z,9.13
2022-09-26T06:11:59.058Z,9.22
2022-09-26T06:14:11.687Z,9.17
2022-09-26T06:16:21.400Z,9.25
2022-09-26T06:18:29.345Z,9.31
2022-09-26T06:20:37.121Z,9.24
2022-09-26T06:22:46.050Z,9.19
2022-09-26T06:24:54.249Z,9.20
2022-09-26T06:27:02.556Z,9.17
2022-09-26T06:29:15.635Z,9.33
2022-09-26T06:31:23.752Z,9.60
2022-09-26T06:33:54.529Z,10.03
2022-09-26T06:36:22.876Z,10.03
2022-09-26T06:38:31.953Z,10.22
2022-09-26T06:40:40.039Z,10.15
2022-09-26T06:42:48.440Z,10.44
2022-09-26T06:45:09.700Z,10.76
2022-09-26T06:47:36.473Z,10.98
2022-09-26T06:50:13.661Z,11.02
2022-09-26T06:52:25.894Z,11.30
2022-09-26T06:54:34.113Z,11.25
2022-09-26T06:56:42.473Z,11.10
2022-09-26T06:58:50.202Z,11.25
2022-09-26T07:01:06.665Z,11.40
2022-09-26T07:03:33.329Z,11.52
2022-09-26T07:05:47.161Z,11.48
2022-09-26T07:07:57.781Z,11.65
2022-09-26T07:10:11.019Z,11.48
2022-09-26T07:12:33.573Z,11.57
2022-09-26T07:14:41.483Z,11.65
2022-09-26T07:17:02.869Z,11.75
2022-09-26T07:19:36.666Z,11.75
2022-09-26T07:21:47.682Z,12.20
2022-09-26T07:24:08.250Z,12.14
2022-09-26T07:26:19.719Z,12.12
2022-09-26T07:28:27.991Z,12.07
2022-09-26T07:30:37.769Z,12.10
2022-09-26T07:32:55.935Z,12.00
2022-09-26T07:35:27.395Z,12.27
2022-09-26T07:37:35.309Z,12.33
2022-09-26T07:39:43.241Z,12.42
2022-09-26T07:41:51.364Z,13.17
2022-09-26T07:46:40.132Z,14.17
2022-09-26T07:49:02.984Z,14.23
2022-09-26T07:51:32.454Z,14.45
2022-09-26T07:53:42.689Z,14.48
2022-09-26T07:56:10.569Z,14.39
2022-09-26T07:58:55.475Z,14.22
2022-09-26T08:01:26.592Z,14.36
2022-09-26T08:03:40.634Z,14.22
2022-09-26T08:06:03.285Z,13.97
2022-09-26T08:08:11.251Z,13.76
2022-09-26T08:10:39.268Z,13.92
2022-09-26T08:12:55.904Z,13.74
2022-09-26T08:15:35.940Z,13.68
2022-09-26T08:17:46.582Z,13.55
2022-09-26T08:19:54.568Z,13.27
2022-09-26T08:22:07.507Z,13.44
2022-09-26T08:24:15.890Z,13.47
2022-09-26T08:26:58.542Z,13.48
2022-09-26T08:29:14.039Z,13.61
2022-09-26T08:31:23.773Z,13.59
2022-09-26T08:33:34.483Z,13.89
2022-09-26T08:35:43.025Z,14.00
2022-09-26T08:38:09.087Z,14.51
2022-09-26T08:40:19.917Z,14.35
2022-09-26T08:43:03.633Z,14.53
2022-09-26T08:45:54.179Z,14.36
2022-09-26T08:48:34.631Z,14.86
2022-09-26T08:50:59.896Z,15.07
2022-09-26T08:53:16.320Z,15.41
2022-09-26T08:55:33.126Z,15.39
2022-09-26T08:57:45.014Z,14.51
2022-09-26T08:59:54.867Z,14.57
2022-09-26T09:02:13.940Z,14.71
2022-09-26T09:04:41.297Z,14.38
2022-09-26T09:06:50.009Z,14.24
2022-09-26T09:09:00.942Z,14.27
2022-09-26T09:11:30.868Z,14.64
2022-09-26T09:13:58.934Z,15.31
2022-09-26T09:16:55.066Z,17.15
2022-09-26T09:19:30.670Z,18.34
2022-09-26T09:22:03.625Z,19.70
2022-09-26T09:24:40.149Z,19.61
2022-09-26T09:29:56.701Z,19.86
2022-09-26T09:32:27.097Z,21.93
2022-09-26T09:34:56.491Z,20.48
2022-09-26T09:37:26.610Z,20.06
2022-09-26T09:39:59.401Z,19.21
2022-09-26T09:42:25.045Z,20.23
2022-09-26T09:44:46.503Z,19.95
2022-09-26T09:46:54.905Z,18.85
2022-09-26T09:49:20.248Z,19.63
2022-09-26T09:51:39.463Z,21.33
2022-09-26T09:54:05.392Z,22.62
2022-09-26T09:56:28.324Z,21.65
2022-09-26T09:58:53.166Z,20.92
2022-09-26T10:01:09.927Z,20.87
2022-09-26T10:03:27.841Z,20.00
2022-09-26T10:05:44.277Z,19.08
2022-09-26T10:08:03.483Z,18.63
2022-09-26T10:10:40.160Z,17.68
2022-09-26T10:13:22.863Z,19.79
2022-09-26T10:16:01.491Z,21.93
2022-09-26T10:18:28.259Z,22.31
2022-09-26T10:20:54.246Z,20.85
2022-09-26T10:23:04.600Z,20.05
2022-09-26T10:25:21.312Z,18.89
2022-09-26T10:27:38.451Z,18.55
2022-09-26T10:29:49.421Z,18.39
2022-09-26T10:32:02.782Z,18.24
2022-09-26T10:34:30.121Z,18.13
2022-09-26T10:36:40.301Z,17.69
2022-09-26T10:39:12.398Z,17.43
2022-09-26T10:41:27.799Z,17.68
2022-09-26T10:43:38.838Z,17.11
2022-09-26T10:46:02.183Z,17.36
2022-09-26T10:48:42.990Z,17.03
2022-09-26T10:51:11.252Z,17.14
2022-09-26T10:53:25.973Z,17.45
2022-09-26T10:55:37.717Z,17.18
2022-09-26T10:57:49.401Z,17.74
2022-09-26T11:00:06.649Z,17.63
2022-09-26T11:02:22.813Z,17.57
2022-09-26T11:04:47.533Z,17.50
2022-09-26T11:07:24.925Z,17.30
2022-09-26T11:09:49.483Z,17.39
2022-09-26T11:12:28.239Z,17.32
2022-09-26T11:14:48.752Z,17.62
2022-09-26T11:16:59.669Z,17.57
2022-09-26T11:19:17.321Z,17.81
2022-09-26T11:21:30.649Z,18.17
2022-09-26T11:23:47.611Z,18.32
2022-09-26T11:26:03.628Z,18.53
2022-09-26T11:28:17.655Z,18.40
2022-09-26T11:30:50.557Z,18.33
2022-09-26T11:33:08.730Z,17.89
2022-09-26T11:35:48.602Z,17.45
2022-09-26T11:38:08.609Z,17.05
2022-09-26T11:40:28.427Z,17.26
2022-09-26T11:42:54.999Z,16.88
2022-09-26T11:45:13.014Z,16.28
2022-09-26T11:48:11.315Z,15.49
2022-09-26T11:50:59.400Z,15.79
2022-09-26T11:53:31.292Z,15.74
2022-09-26T11:55:52.871Z,15.57
2022-09-26T11:58:09.016Z,15.75
2022-09-26T12:00:24.658Z,15.96
2022-09-26T12:02:48.878Z,16.06
2022-09-26T12:05:14.170Z,16.25
2022-09-26T12:07:34.316Z,16.39
2022-09-26T12:10:08.298Z,16.39
2022-09-26T12:12:24.380Z,16.69
2022-09-26T12:14:45.527Z,16.83
2022-09-26T12:17:04.569Z,16.70
2022-09-26T12:19:23.736Z,16.75
2022-09-26T12:22:02.850Z,16.56
2022-09-26T12:24:27.992Z,16.65
2022-09-26T12:26:49.078Z,16.79
2022-09-26T12:29:18.495Z,16.94
2022-09-26T12:31:37.330Z,17.10
2022-09-26T12:34:12.853Z,17.25
2022-09-26T12:36:31.454Z,17.06
2022-09-26T12:38:56.481Z,17.00
2022-09-26T12:41:16.593Z,16.70
2022-09-26T12:43:56.221Z,16.53
2022-09-26T12:46:18.767Z,16.53
2022-09-26T12:48:42.000Z,16.20
2022-09-26T12:51:04.509Z,15.78
2022-09-26T12:53:47.358Z,15.69
2022-09-26T12:56:07.172Z,15.75
2022-09-26T12:58:32.054Z,15.79
2022-09-26T13:00:47.254Z,15.67
2022-09-26T13:03:24.525Z,15.78
2022-09-26T13:05:44.297Z,15.75
2022-09-26T13:08:03.352Z,15.74
2022-09-26T13:10:28.123Z,15.39
2022-09-26T13:12:54.506Z,15.52
2022-09-26T13:15:21.962Z,15.46
2022-09-26T13:17:36.312Z,15.35
2022-09-26T13:19:51.759Z,15.32
2022-09-26T13:22:03.114Z,15.10
2022-09-26T13:24:18.760Z,15.10
2022-09-26T13:26:31.335Z,14.75
2022-09-26T13:29:00.465Z,14.40
2022-09-26T13:31:21.425Z,13.98
2022-09-26T13:33:36.719Z,13.63
2022-09-26T13:35:47.243Z,13.75
2022-09-26T13:38:20.623Z,13.72
2022-09-26T13:40:37.840Z,13.83
2022-09-26T13:42:50.918Z,13.97
2022-09-26T13:45:10.239Z,14.04
2022-09-26T13:47:27.581Z,14.15
2022-09-26T13:49:45.415Z,14.21
2022-09-26T13:52:08.668Z,14.56
2022-09-26T13:54:23.948Z,14.86
2022-09-26T13:56:44.230Z,14.98
2022-09-26T13:59:05.835Z,14.85
2022-09-26T14:01:30.370Z,14.77
2022-09-26T14:03:45.235Z,14.70
2022-09-26T14:05:55.542Z,14.83
2022-09-26T14:08:43.755Z,14.39
2022-09-26T14:10:56.331Z,14.42
2022-09-26T14:13:20.241Z,14.54
2022-09-26T14:15:30.091Z,14.52
2022-09-26T14:18:11.249Z,14.63
2022-09-26T14:20:27.396Z,14.60
2022-09-26T14:22:37.882Z,14.52
2022-09-26T14:24:46.032Z,14.55
2022-09-26T14:26:59.846Z,14.61
2022-09-26T14:29:28.054Z,14.80
2022-09-26T14:31:42.719Z,14.64
2022-09-26T14:33:56.096Z,14.54
2022-09-26T14:36:33.671Z,14.48
2022-09-26T14:38:43.162Z,14.52
2022-09-26T14:40:56.694Z,14.52
2022-09-26T14:43:16.079Z,14.55
2022-09-26T14:45:28.065Z,14.64
2022-09-26T14:47:46.344Z,14.80
2022-09-26T14:50:03.109Z,14.71
2022-09-26T14:52:20.506Z,14.44
2022-09-26T14:54:32.709Z,14.33
2022-09-26T14:56:47.194Z,14.34
2022-09-26T14:58:55.285Z,14.23
2022-09-26T15:01:06.464Z,14.27
2022-09-26T15:03:19.355Z,14.33
2022-09-26T15:05:28.499Z,14.28
2022-09-26T15:07:46.442Z,14.34
2022-09-26T15:10:00.739Z,14.17
2022-09-26T15:12:12.999Z,14.21
2022-09-26T15:14:29.125Z,14.01
2022-09-26T15:16:43.362Z,13.93
2022-09-26T15:18:55.565Z,13.91
2022-09-26T15:21:13.118Z,13.98
2022-09-26T15:23:30.411Z,14.05
2022-09-26T15:25:41.017Z,14.05
2022-09-26T15:27:56.748Z,14.12
2022-09-26T15:30:07.733Z,14.00
2022-09-26T15:32:20.563Z,13.88
2022-09-26T15:34:36.478Z,14.06
2022-09-26T15:36:45.670Z,13.93
2022-09-26T15:38:56.199Z,13.88
2022-09-26T15:41:05.467Z,13.95
2022-09-26T15:43:13.322Z,13.91
2022-09-26T15:45:33.545Z,13.62
2022-09-26T15:47:45.476Z,13.67
2022-09-26T15:50:08.702Z,13.56
2022-09-26T15:52:16.947Z,13.43
2022-09-26T15:54:31.221Z,13.30
2022-09-26T15:56:42.358Z,13.24
2022-09-26T15:58:54.219Z,13.16
2022-09-26T16:01:03.056Z,13.15
2022-09-26T16:03:40.030Z,13.11
2022-09-26T16:05:48.437Z,13.06
2022-09-26T16:07:58.733Z,12.99
2022-09-26T16:10:24.817Z,12.79
2022-09-26T16:12:33.652Z,12.83
2022-09-26T16:14:47.546Z,12.74
2022-09-26T16:17:00.381Z,12.76
2022-09-26T16:19:08.284Z,12.72
2022-09-26T16:21:21.984Z,12.66
2022-09-26T16:23:29.883Z,12.60
2022-09-26T16:25:56.487Z,12.65
2022-09-26T16:28:24.143Z,12.55
2022-09-26T16:30:45.469Z,12.57
2022-09-26T16:32:53.679Z,12.48
2022-09-26T16:35:14.579Z,12.49
2022-09-26T16:37:23.524Z,12.53
2022-09-26T16:39:33.095Z,12.37
2022-09-26T16:42:01.309Z,12.33
2022-09-26T16:44:28.830Z,12.24
2022-09-26T16:46:41.426Z,12.25
2022-09-26T16:48:56.713Z,12.25
2022-09-26T16:51:16.712Z,12.29
2022-09-26T16:53:26.035Z,12.31
2022-09-26T16:55:37.603Z,12.33
2022-09-26T16:57:55.063Z,12.27
2022-09-26T17:00:18.401Z,12.16
2022-09-26T17:02:31.558Z,12.05
2022-09-26T17:04:40.703Z,12.00
2022-09-26T17:06:49.416Z,11.91
2022-09-26T17:09:00.358Z,11.80
2022-09-26T17:11:17.101Z,11.77
2022-09-26T17:13:31.103Z,11.73
2022-09-26T17:15:39.583Z,11.70
2022-09-26T17:17:47.614Z,11.71
2022-09-26T17:19:59.605Z,11.65
2022-09-26T17:22:09.472Z,11.62
2022-09-26T17:24:20.955Z,11.61
2022-09-26T17:26:30.428Z,11.64
2022-09-26T17:28:44.664Z,11.59
2022-09-26T17:30:52.656Z,11.60
2022-09-26T17:33:01.126Z,11.59
2022-09-26T17:35:16.959Z,11.55
2022-09-26T17:37:25.028Z,11.55
2022-09-26T17:39:32.930Z,11.47
2022-09-26T17:41:40.897Z,11.44
2022-09-26T17:43:59.149Z,11.42
2022-09-26T17:46:15.236Z,11.37
2022-09-26T17:48:29.200Z,11.31
2022-09-26T17:50:40.554Z,11.37
2022-09-26T17:52:51.366Z,11.32
2022-09-26T17:55:05.999Z,11.31
2022-09-26T17:57:16.034Z,11.31
2022-09-26T17:59:28.720Z,11.29
2022-09-26T18:01:37.343Z,11.28
2022-09-26T18:03:45.414Z,11.30
2022-09-26T18:05:53.996Z,11.30
2022-09-26T18:08:04.594Z,11.28
2022-09-26T18:10:22.187Z,11.21
2022-09-26T18:12:50.599Z,11.22
2022-09-26T18:15:16.182Z,11.17
2022-09-26T18:17:24.328Z,11.12
2022-09-26T18:19:35.329Z,11.11
2022-09-26T18:21:43.191Z,11.16
2022-09-26T18:23:55.629Z,11.18
2022-09-26T18:26:04.031Z,11.20
2022-09-26T18:28:20.051Z,11.25
2022-09-26T18:30:30.522Z,11.23
2022-09-26T18:32:41.925Z,11.23
2022-09-26T18:34:51.803Z,11.27
2022-09-26T18:37:00.502Z,11.24
2022-09-26T18:39:08.527Z,11.21
2022-09-26T18:41:18.840Z,11.19
2022-09-26T18:43:29.564Z,11.13
2022-09-26T18:45:42.796Z,11.21
2022-09-26T18:47:50.975Z,11.14
2022-09-26T18:49:59.763Z,11.19
2022-09-26T18:52:09.635Z,11.26
2022-09-26T18:54:19.315Z,11.21
2022-09-26T18:56:39.742Z,11.22
2022-09-26T18:58:48.532Z,11.23
2022-09-26T19:01:01.878Z,11.27
2022-09-26T19:03:09.990Z,11.21
2022-09-26T19:05:22.528Z,11.18
2022-09-26T19:07:32.512Z,11.15
2022-09-26T19:09:41.763Z,11.09
2022-09-26T19:11:50.517Z,11.07
2022-09-26T19:14:00.780Z,11.01
2022-09-26T19:16:12.129Z,11.02
2022-09-26T19:18:20.097Z,10.95
2022-09-26T19:20:27.972Z,10.94
2022-09-26T19:22:36.161Z,11.03
2022-09-26T19:24:47.971Z,11.05
2022-09-26T19:26:58.669Z,11.04
2022-09-26T19:29:11.920Z,10.95
2022-09-26T19:31:22.887Z,11.01
2022-09-26T19:33:32.461Z,10.97
2022-09-26T19:35:42.100Z,10.97
2022-09-26T19:37:50.168Z,10.98
2022-09-26T19:39:58.353Z,10.98
2022-09-26T19:42:06.295Z,11.00
2022-09-26T19:44:14.964Z,11.02
2022-09-26T19:46:30.614Z,11.03
2022-09-26T19:48:39.086Z,11.00
2022-09-26T19:50:48.579Z,10.98
2022-09-26T19:52:58.474Z,11.03
2022-09-26T19:55:14.620Z,11.10
2022-09-26T19:57:24.992Z,11.10
2022-09-26T19:59:32.913Z,11.18
2022-09-26T20:01:44.336Z,11.20
2022-09-26T20:03:53.319Z,11.28
2022-09-26T20:06:01.230Z,11.39
2022-09-26T20:08:12.528Z,11.53
2022-09-26T20:10:22.657Z,11.49
2022-09-26T20:12:30.547Z,11.60
2022-09-26T20:14:38.755Z,11.62
2022-09-26T20:16:49.997Z,11.61
2022-09-26T20:18:58.501Z,11.57
2022-09-26T20:21:07.061Z,11.62
2022-09-26T20:23:22.135Z,11.65
2022-09-26T20:25:32.378Z,11.66
2022-09-26T20:27:40.243Z,11.70
2022-09-26T20:30:00.678Z,11.69
2022-09-26T20:32:15.358Z,11.62
2022-09-26T20:34:23.485Z,11.67
2022-09-26T20:36:33.746Z,11.67
2022-09-26T20:38:47.945Z,11.70
2022-09-26T20:41:03.398Z,11.70
2022-09-26T20:43:16.136Z,11.63
2022-09-26T20:45:32.019Z,11.65
2022-09-26T20:47:42.928Z,11.49
2022-09-26T20:49:54.989Z,11.60
2022-09-26T20:52:03.881Z,11.38
2022-09-26T20:54:24.379Z,11.36
2022-09-26T20:56:32.601Z,11.31
2022-09-26T20:58:42.356Z,11.13
2022-09-26T21:00:51.574Z,11.14
2022-09-26T21:03:02.062Z,11.18
2022-09-26T21:05:25.840Z,11.12
2022-09-26T21:07:35.731Z,11.04
2022-09-26T21:09:44.135Z,11.03
2022-09-26T21:11:52.133Z,11.01
2022-09-26T21:13:59.993Z,10.97
2022-09-26T21:16:08.459Z,11.01
2022-09-26T21:18:26.340Z,11.02
2022-09-26T21:20:37.877Z,11.12
2022-09-26T21:23:08.828Z,11.09
2022-09-26T21:25:19.360Z,11.11
2022-09-26T21:27:27.254Z,11.15
2022-09-26T21:29:35.056Z,11.07
2022-09-26T21:31:44.923Z,11.13
2022-09-26T21:33:56.482Z,11.11
2022-09-26T21:36:04.889Z,11.11
2022-09-26T21:38:13.125Z,11.04
2022-09-26T21:40:22.159Z,11.05
2022-09-26T21:42:30.331Z,11.12
2022-09-26T21:44:41.521Z,11.17
2022-09-26T21:46:49.440Z,11.04
2022-09-26T21:48:59.967Z,10.96
2022-09-26T21:51:08.784Z,10.96
2022-09-26T21:53:20.685Z,10.86
2022-09-26T21:55:34.371Z,10.79
2022-09-26T21:57:45.203Z,10.71
2022-09-26T21:59:55.033Z,10.61
2022-09-26T22:02:02.931Z,10.48
2022-09-26T22:04:14.563Z,10.37
2022-09-26T22:06:22.633Z,10.39
2022-09-26T22:08:31.067Z,10.33
2022-09-26T22:10:39.757Z,10.23
2022-09-26T22:12:47.820Z,10.11
2022-09-26T22:14:55.796Z,10.01
2022-09-26T22:17:04.263Z,10.07
2022-09-26T22:19:15.005Z,9.90
2022-09-26T22:21:24.542Z,9.92
2022-09-26T22:23:32.479Z,9.79
2022-09-26T22:25:42.936Z,9.72
2022-09-26T22:27:51.202Z,9.79
2022-09-26T22:29:59.107Z,9.66
2022-09-26T22:32:07.456Z,9.72
2022-09-26T22:34:18.049Z,9.55
2022-09-26T22:36:26.499Z,9.56
2022-09-26T22:38:38.301Z,9.51
2022-09-26T22:40:46.342Z,9.55
2022-09-26T22:42:54.233Z,9.48
2022-09-26T22:45:02.151Z,9.57
2022-09-26T22:47:10.028Z,9.44
2022-09-26T22:49:20.778Z,9.45
2022-09-26T22:51:29.042Z,9.31
2022-09-26T22:53:38.646Z,9.38
2022-09-26T22:55:55.290Z,9.35
2022-09-26T22:58:03.366Z,9.36
2022-09-26T23:00:13.196Z,9.33
2022-09-26T23:02:21.067Z,9.32
2022-09-26T23:04:47.036Z,9.31
2022-09-26T23:06:55.628Z,9.33
2022-09-26T23:09:03.439Z,9.24
2022-09-26T23:11:13.586Z,9.35
2022-09-26T23:13:21.449Z,9.25
2022-09-26T23:15:30.628Z,9.21
2022-09-26T23:17:39.209Z,9.20
2022-09-26T23:19:49.772Z,9.23
2022-09-26T23:21:58.210Z,9.18
2022-09-26T23:24:06.181Z,9.16
2022-09-26T23:26:20.237Z,9.13
2022-09-26T23:28:28.377Z,9.07
2022-09-26T23:30:36.338Z,9.14
2022-09-26T23:32:44.543Z,9.09
2022-09-26T23:34:55.473Z,9.13
2022-09-26T23:37:03.372Z,9.14
2022-09-26T23:39:11.412Z,9.09
2022-09-26T23:41:19.560Z,9.14
2022-09-26T23:43:27.435Z,9.13
2022-09-26T23:45:36.680Z,9.24
2022-09-26T23:47:44.703Z,9.20
2022-09-26T23:49:55.242Z,9.14
2022-09-26T23:52:03.339Z,9.09
2022-09-26T23:54:11.448Z,9.09
2022-09-26T23:56:19.467Z,9.06
2022-09-26T23:58:29.634Z,9.01
